createdAt,value
2024-02-15T00:01:12.939Z,94619.72
2024-02-15T00:03:39.421Z,94617.13
2024-02-15T00:06:06.052Z,94612.88
2024-02-15T00:08:34.127Z,94618.00
2024-02-15T00:11:00.572Z,94610.13
2024-02-15T00:13:26.899Z,94617.72
2024-02-15T00:15:53.390Z,94609.38
2024-02-15T00:18:19.994Z,94605.56
2024-02-15T00:20:46.542Z,94604.75
2024-02-15T00:23:12.922Z,94597.81
2024-02-15T00:25:39.687Z,94599.81
2024-02-15T00:28:06.154Z,94603.50
2024-02-15T00:30:32.782Z,94598.38
2024-02-15T00:32:59.336Z,94599.63
2024-02-15T00:35:28.315Z,94602.94
2024-02-15T00:37:55.216Z,94616.69
2024-02-15T00:40:22.157Z,94608.69
2024-02-15T00:42:48.635Z,94619.66
2024-02-15T00:45:15.100Z,94616.44
2024-02-15T00:47:43.223Z,94624.44
2024-02-15T00:50:10.802Z,94616.00
2024-02-15T00:52:37.451Z,94621.22
2024-02-15T00:55:03.939Z,94625.44
2024-02-15T00:57:30.305Z,94621.38
2024-02-15T00:59:56.716Z,94615.66
2024-02-15T01:02:24.674Z,94619.50
2024-02-15T01:04:52.049Z,94630.94
2024-02-15T01:07:18.405Z,94615.38
2024-02-15T01:09:46.557Z,94619.50
2024-02-15T01:12:12.932Z,94623.50
2024-02-15T01:14:39.431Z,94621.00
2024-02-15T01:17:05.812Z,94626.44
2024-02-15T01:19:32.195Z,94643.19
2024-02-15T01:22:00.648Z,94642.50
2024-02-15T01:24:27.082Z,94645.63
2024-02-15T01:26:54.395Z,94649.34
2024-02-15T01:29:21.654Z,94643.94
2024-02-15T01:31:48.198Z,94517.44
2024-02-15T01:34:14.737Z,94623.69
2024-02-15T01:36:41.226Z,94628.41
2024-02-15T01:39:08.766Z,94618.47
2024-02-15T01:41:35.190Z,94627.00
2024-02-15T01:44:02.477Z,94632.38
2024-02-15T01:46:30.886Z,94620.75
2024-02-15T01:48:57.885Z,94624.09
2024-02-15T01:51:25.816Z,94610.66
2024-02-15T01:53:54.163Z,94623.50
2024-02-15T01:56:21.468Z,94605.28
2024-02-15T01:58:47.897Z,94612.75
2024-02-15T02:01:15.983Z,94614.56
2024-02-15T02:03:42.500Z,94613.81
2024-02-15T02:06:09.617Z,94618.19
2024-02-15T02:08:36.112Z,94613.66
2024-02-15T02:11:03.091Z,94608.88
2024-02-15T02:13:31.375Z,94607.53
2024-02-15T02:15:58.059Z,94602.88
2024-02-15T02:18:25.525Z,94604.56
2024-02-15T02:20:52.121Z,94596.19
2024-02-15T02:23:21.620Z,94588.63
2024-02-15T02:25:50.235Z,94599.66
2024-02-15T02:28:19.440Z,94585.75
2024-02-15T02:30:46.767Z,94589.19
2024-02-15T02:33:20.232Z,94591.44
2024-02-15T02:35:47.661Z,94591.47
2024-02-15T02:38:14.262Z,94600.25
2024-02-15T02:40:40.861Z,94604.16
2024-02-15T02:43:07.274Z,94599.56
2024-02-15T02:45:33.686Z,94596.75
2024-02-15T02:48:00.161Z,94596.97
2024-02-15T02:50:26.931Z,94585.81
2024-02-15T02:52:53.484Z,94592.50
2024-02-15T02:55:19.937Z,94600.91
2024-02-15T02:57:46.342Z,94590.25
2024-02-15T03:00:16.764Z,94588.94
2024-02-15T03:02:44.324Z,94592.16
2024-02-15T03:05:12.232Z,94590.47
2024-02-15T03:07:41.642Z,94584.75
2024-02-15T03:10:09.696Z,94578.88
2024-02-15T03:12:39.177Z,94584.22
2024-02-15T03:15:14.727Z,94582.72
2024-02-15T03:17:42.209Z,94576.41
2024-02-15T03:20:13.688Z,94587.16
2024-02-15T03:22:40.426Z,94577.69
2024-02-15T03:25:08.838Z,94584.72
2024-02-15T03:27:36.350Z,94574.31
2024-02-15T03:30:03.322Z,94572.63
2024-02-15T03:32:29.824Z,94576.88
2024-02-15T03:34:56.394Z,94572.56
2024-02-15T03:37:22.741Z,94568.59
2024-02-15T03:39:49.117Z,94575.03
2024-02-15T03:42:16.228Z,94564.06
2024-02-15T03:44:42.651Z,94559.59
2024-02-15T03:47:09.086Z,94559.50
2024-02-15T03:49:35.677Z,94556.06
2024-02-15T03:52:02.070Z,94552.38
2024-02-15T03:54:30.258Z,94552.47
2024-02-15T03:56:58.627Z,94547.38
2024-02-15T03:59:28.469Z,94556.78
2024-02-15T04:01:55.486Z,94559.41
2024-02-15T04:04:22.551Z,94557.38
2024-02-15T04:06:52.737Z,94562.72
2024-02-15T04:09:19.551Z,94566.34
2024-02-15T04:11:48.162Z,94557.56
2024-02-15T04:14:15.169Z,94555.78
2024-02-15T04:16:41.574Z,94546.56
2024-02-15T04:19:07.990Z,94548.13
2024-02-15T04:21:34.374Z,94547.94
2024-02-15T04:24:00.759Z,94546.66
2024-02-15T04:26:28.081Z,94548.56
2024-02-15T04:28:54.626Z,94550.84
2024-02-15T04:31:27.544Z,94556.41
2024-02-15T04:33:57.270Z,94554.06
2024-02-15T04:36:27.443Z,94550.66
2024-02-15T04:38:53.946Z,94549.47
2024-02-15T04:41:26.428Z,94552.38
2024-02-15T04:43:55.750Z,94549.22
2024-02-15T04:46:22.550Z,94539.16
2024-02-15T04:48:51.741Z,94539.06
2024-02-15T04:51:18.649Z,94540.63
2024-02-15T04:53:47.446Z,94549.03
2024-02-15T04:56:17.379Z,94538.56
2024-02-15T04:58:48.952Z,94536.75
2024-02-15T05:01:16.479Z,94534.53
2024-02-15T05:03:46.404Z,94541.06
2024-02-15T05:06:15.922Z,94533.03
2024-02-15T05:08:45.558Z,94536.72
2024-02-15T05:11:19.503Z,94536.34
2024-02-15T05:13:46.542Z,94541.47
2024-02-15T05:16:13.502Z,94535.00
2024-02-15T05:18:41.419Z,94529.28
2024-02-15T05:21:11.006Z,94515.50
2024-02-15T05:23:38.923Z,94517.16
2024-02-15T05:26:05.622Z,94511.84
2024-02-15T05:28:32.280Z,94511.06
2024-02-15T05:31:17.848Z,94511.69
2024-02-15T05:33:48.828Z,94509.41
2024-02-15T05:36:15.872Z,94515.88
2024-02-15T05:38:42.758Z,94505.69
2024-02-15T05:41:09.473Z,94509.44
2024-02-15T05:43:38.211Z,94502.72
2024-02-15T05:46:04.828Z,94504.94
2024-02-15T05:48:31.482Z,94507.81
2024-02-15T05:50:58.488Z,94503.38
2024-02-15T05:53:26.382Z,94492.53
2024-02-15T05:55:52.743Z,94496.69
2024-02-15T05:58:19.134Z,94490.91
2024-02-15T06:00:45.661Z,94494.06
2024-02-15T06:03:14.953Z,94492.56
2024-02-15T06:05:42.634Z,94491.72
2024-02-15T06:08:09.230Z,94488.88
2024-02-15T06:10:35.576Z,94489.16
2024-02-15T06:13:02.230Z,94484.56
2024-02-15T06:15:28.629Z,94484.72
2024-02-15T06:17:55.185Z,94483.59
2024-02-15T06:20:22.464Z,94476.94
2024-02-15T06:22:49.248Z,94483.25
2024-02-15T06:25:16.637Z,94475.75
2024-02-15T06:27:43.560Z,94470.28
2024-02-15T06:30:29.340Z,94472.59
2024-02-15T06:33:14.680Z,94477.44
2024-02-15T06:35:59.894Z,94474.41
2024-02-15T06:38:45.324Z,94466.25
2024-02-15T06:41:11.773Z,94464.75
2024-02-15T06:43:38.228Z,94462.69
2024-02-15T06:46:07.223Z,94464.06
2024-02-15T06:48:33.637Z,94468.34
2024-02-15T06:51:00.114Z,94467.78
2024-02-15T06:53:26.564Z,94468.72
2024-02-15T06:55:53.180Z,94463.59
2024-02-15T06:58:19.509Z,94463.34
2024-02-15T07:00:45.950Z,94463.78
2024-02-15T07:03:12.378Z,94457.53
2024-02-15T07:05:42.287Z,94460.22
2024-02-15T07:08:11.493Z,94460.44
2024-02-15T07:10:40.998Z,94458.88
2024-02-15T07:13:07.700Z,94462.69
2024-02-15T07:15:38.736Z,94466.69
2024-02-15T07:18:07.219Z,94456.63
2024-02-15T07:20:34.540Z,94456.78
2024-02-15T07:23:01.279Z,94459.34
2024-02-15T07:25:27.822Z,94458.78
2024-02-15T07:27:55.291Z,94459.69
2024-02-15T07:30:22.599Z,94451.25
2024-02-15T07:32:51.393Z,94457.13
2024-02-15T07:35:18.975Z,94454.94
2024-02-15T07:37:59.851Z,94446.81
2024-02-15T07:40:29.900Z,94451.09
2024-02-15T07:42:58.269Z,94447.91
2024-02-15T07:45:24.727Z,94445.69
2024-02-15T07:47:51.185Z,94441.81
2024-02-15T07:50:21.242Z,94439.47
2024-02-15T07:52:48.949Z,94440.78
2024-02-15T07:55:15.286Z,94433.16
2024-02-15T07:57:41.829Z,94434.75
2024-02-15T08:00:12.498Z,94427.72
2024-02-15T08:02:41.660Z,94414.50
2024-02-15T08:05:11.116Z,94418.22
2024-02-15T08:07:38.606Z,94404.91
2024-02-15T08:10:05.289Z,94409.75
2024-02-15T08:12:31.847Z,94405.41
2024-02-15T08:14:59.187Z,94403.53
2024-02-15T08:17:27.564Z,94396.34
2024-02-15T08:19:54.181Z,94393.97
2024-02-15T08:22:24.684Z,94379.47
2024-02-15T08:24:53.346Z,94370.94
2024-02-15T08:27:19.697Z,94367.69
2024-02-15T08:29:46.142Z,94361.09
2024-02-15T08:32:12.735Z,94360.13
2024-02-15T08:34:39.186Z,94339.28
2024-02-15T08:37:05.833Z,94346.75
2024-02-15T08:39:32.377Z,94345.41
2024-02-15T08:42:00.247Z,94343.41
2024-02-15T08:44:26.689Z,94335.81
2024-02-15T08:46:53.350Z,94330.50
2024-02-15T08:49:19.881Z,94336.28
2024-02-15T08:51:46.426Z,94331.88
2024-02-15T08:54:13.158Z,94336.69
2024-02-15T08:56:39.603Z,94324.94
2024-02-15T08:59:06.262Z,94326.19
2024-02-15T09:01:32.877Z,94329.16
2024-02-15T09:03:59.540Z,94321.38
2024-02-15T09:06:27.167Z,94318.59
2024-02-15T09:08:53.948Z,94309.97
2024-02-15T09:11:20.730Z,94315.59
2024-02-15T09:13:47.844Z,94305.09
2024-02-15T09:16:14.311Z,94301.34
2024-02-15T09:18:46.320Z,94300.13
2024-02-15T09:21:13.074Z,94300.75
2024-02-15T09:23:40.286Z,94309.78
2024-02-15T09:26:06.904Z,94307.41
2024-02-15T09:28:33.599Z,94316.69
2024-02-15T09:31:00.651Z,94311.31
2024-02-15T09:33:27.342Z,94318.16
2024-02-15T09:35:56.388Z,94310.69
2024-02-15T09:38:22.908Z,94304.06
2024-02-15T09:40:50.395Z,94304.88
2024-02-15T09:43:17.450Z,94298.66
2024-02-15T09:45:44.262Z,94299.00
2024-02-15T09:48:14.204Z,94300.94
2024-02-15T09:50:49.734Z,94283.84
2024-02-15T09:53:16.346Z,94290.84
2024-02-15T09:55:43.670Z,94290.50
2024-02-15T09:58:10.517Z,94288.94
2024-02-15T10:00:36.936Z,94283.97
2024-02-15T10:03:03.853Z,94292.94
2024-02-15T10:05:30.294Z,94290.66
2024-02-15T10:07:56.652Z,94286.94
2024-02-15T10:10:24.046Z,94276.91
2024-02-15T10:12:52.979Z,94277.63
2024-02-15T10:15:33.916Z,94282.69
2024-02-15T10:18:01.859Z,94275.03
2024-02-15T10:20:28.420Z,94272.69
2024-02-15T10:23:18.303Z,94268.38
2024-02-15T10:25:45.381Z,94266.66
2024-02-15T10:28:12.923Z,94274.81
2024-02-15T10:30:40.245Z,94274.59
2024-02-15T10:33:08.905Z,94269.75
2024-02-15T10:35:35.922Z,94255.47
2024-02-15T10:38:12.318Z,94257.59
2024-02-15T10:40:39.234Z,94257.31
2024-02-15T10:43:09.249Z,94252.25
2024-02-15T10:45:37.934Z,94243.97
2024-02-15T10:48:07.209Z,94246.69
2024-02-15T10:50:33.654Z,94249.03
2024-02-15T10:53:00.289Z,94249.22
2024-02-15T10:55:30.236Z,94251.44
2024-02-15T10:57:59.329Z,94245.97
2024-02-15T11:00:27.234Z,94243.88
2024-02-15T11:03:06.040Z,94241.16
2024-02-15T11:05:37.264Z,94234.16
2024-02-15T11:08:05.583Z,94229.38
2024-02-15T11:10:32.803Z,94228.34
2024-02-15T11:13:00.061Z,94222.25
2024-02-15T11:15:43.064Z,94219.53
2024-02-15T11:18:09.533Z,94218.53
2024-02-15T11:20:36.786Z,94208.31
2024-02-15T11:23:05.069Z,94207.00
2024-02-15T11:25:38.278Z,94210.47
2024-02-15T11:28:23.211Z,94196.28
2024-02-15T11:30:50.150Z,94195.50
2024-02-15T11:33:38.520Z,94187.56
2024-02-15T11:36:08.929Z,94185.31
2024-02-15T11:38:35.551Z,94186.34
2024-02-15T11:41:06.685Z,94182.28
2024-02-15T11:43:51.892Z,94176.06
2024-02-15T11:46:19.338Z,94171.63
2024-02-15T11:48:47.379Z,94165.81
2024-02-15T11:51:29.613Z,94163.81
2024-02-15T11:54:00.434Z,94158.13
2024-02-15T11:56:28.168Z,94149.25
2024-02-15T11:59:07.138Z,94140.63
2024-02-15T12:01:52.642Z,94147.19
2024-02-15T12:04:38.277Z,94155.78
2024-02-15T12:07:23.385Z,94148.19
2024-02-15T12:10:08.345Z,94141.03
2024-02-15T12:12:53.632Z,94144.47
2024-02-15T12:15:38.699Z,94146.94
2024-02-15T12:18:33.982Z,94137.19
2024-02-15T12:21:00.796Z,94143.25
2024-02-15T12:23:27.324Z,94140.97
2024-02-15T12:25:53.803Z,94132.75
2024-02-15T12:28:20.182Z,94140.41
2024-02-15T12:30:47.342Z,94121.56
2024-02-15T12:33:20.388Z,94123.81
2024-02-15T12:35:47.044Z,94121.72
2024-02-15T12:38:17.292Z,94125.28
2024-02-15T12:40:46.921Z,94116.25
2024-02-15T12:43:14.420Z,94108.69
2024-02-15T12:45:42.072Z,94111.00
2024-02-15T12:48:09.453Z,94106.97
2024-02-15T12:50:36.582Z,94097.97
2024-02-15T12:53:03.313Z,94086.84
2024-02-15T12:55:36.797Z,94095.88
2024-02-15T12:58:09.764Z,94095.06
2024-02-15T13:00:41.716Z,94086.81
2024-02-15T13:03:12.663Z,94079.88
2024-02-15T13:05:40.216Z,94087.56
2024-02-15T13:08:10.952Z,94080.13
2024-02-15T13:10:37.572Z,94077.72
2024-02-15T13:13:04.011Z,94075.72
2024-02-15T13:15:34.301Z,94067.94
2024-02-15T13:18:01.695Z,94071.00
2024-02-15T13:20:35.783Z,94063.09
2024-02-15T13:23:04.400Z,94062.28
2024-02-15T13:25:30.974Z,94048.91
2024-02-15T13:27:58.658Z,94046.81
2024-02-15T13:30:28.453Z,94044.75
2024-02-15T13:32:59.339Z,94045.44
2024-02-15T13:35:25.958Z,94042.59
2024-02-15T13:37:55.832Z,94036.78
2024-02-15T13:40:25.978Z,94030.06
2024-02-15T13:42:55.221Z,94032.13
2024-02-15T13:45:23.948Z,94034.53
2024-02-15T13:47:52.094Z,94031.06
2024-02-15T13:50:19.405Z,94031.66
2024-02-15T13:52:46.227Z,94018.63
2024-02-15T13:55:17.119Z,94023.75
2024-02-15T13:57:44.967Z,94021.22
2024-02-15T14:00:22.740Z,94027.22
2024-02-15T14:02:49.427Z,94024.91
2024-02-15T14:05:18.823Z,94018.75
2024-02-15T14:07:46.262Z,94019.50
2024-02-15T14:10:13.562Z,94019.63
2024-02-15T14:12:40.477Z,94022.25
2024-02-15T14:15:07.106Z,94010.16
2024-02-15T14:17:33.512Z,94014.56
2024-02-15T14:19:59.919Z,94018.06
2024-02-15T14:22:29.340Z,94024.22
2024-02-15T14:24:56.507Z,94020.34
2024-02-15T14:27:23.132Z,94014.47
2024-02-15T14:30:08.437Z,94018.13
2024-02-15T14:32:53.525Z,94008.66
2024-02-15T14:35:21.348Z,94002.78
2024-02-15T14:37:47.800Z,94002.88
2024-02-15T14:40:18.613Z,94001.75
2024-02-15T14:42:56.131Z,94015.47
2024-02-15T14:45:23.731Z,94011.69
2024-02-15T14:47:50.182Z,94011.91
2024-02-15T14:50:16.667Z,94013.47
2024-02-15T14:52:43.698Z,94014.81
2024-02-15T14:55:10.797Z,94001.28
2024-02-15T14:57:39.009Z,94011.91
2024-02-15T15:00:06.260Z,94011.53
2024-02-15T15:02:32.703Z,94004.69
2024-02-15T15:05:19.015Z,94002.59
2024-02-15T15:08:04.210Z,94007.09
2024-02-15T15:10:49.022Z,94009.19
2024-02-15T15:13:15.402Z,94001.84
2024-02-15T15:15:41.908Z,94005.03
2024-02-15T15:18:09.314Z,94014.41
2024-02-15T15:20:37.541Z,94003.44
2024-02-15T15:23:05.671Z,93999.72
2024-02-15T15:25:32.133Z,94005.16
2024-02-15T15:27:58.496Z,94007.84
2024-02-15T15:30:24.927Z,94009.47
2024-02-15T15:32:51.396Z,93994.97
2024-02-15T15:35:19.360Z,94002.81
2024-02-15T15:37:46.926Z,93999.19
2024-02-15T15:40:14.150Z,93999.09
2024-02-15T15:42:40.959Z,94001.44
2024-02-15T15:45:09.862Z,94000.53
2024-02-15T15:47:37.109Z,94006.41
2024-02-15T15:50:07.486Z,93995.22
2024-02-15T15:52:34.350Z,93995.34
2024-02-15T15:55:01.210Z,93993.53
2024-02-15T15:57:27.645Z,94004.44
2024-02-15T15:59:53.991Z,93997.56
2024-02-15T16:02:22.768Z,93998.88
2024-02-15T16:04:50.874Z,94003.31
2024-02-15T16:07:18.823Z,94006.03
2024-02-15T16:09:48.291Z,94005.25
2024-02-15T16:12:16.910Z,94005.22
2024-02-15T16:14:46.186Z,94011.00
2024-02-15T16:17:13.115Z,94016.84
2024-02-15T16:19:39.501Z,94013.84
2024-02-15T16:22:06.774Z,94018.09
2024-02-15T16:24:33.287Z,94014.19
2024-02-15T16:26:59.721Z,94009.94
2024-02-15T16:29:26.129Z,94017.00
2024-02-15T16:31:52.458Z,94026.28
2024-02-15T16:34:18.989Z,94024.31
2024-02-15T16:36:49.491Z,94029.50
2024-02-15T16:39:15.999Z,94025.59
2024-02-15T16:41:45.125Z,94023.19
2024-02-15T16:44:12.156Z,94027.41
2024-02-15T16:46:38.514Z,94033.09
2024-02-15T16:49:06.367Z,94026.75
2024-02-15T16:51:33.358Z,94032.19
2024-02-15T16:53:59.924Z,94039.25
2024-02-15T16:56:27.174Z,94038.19
2024-02-15T16:58:54.109Z,94043.50
2024-02-15T17:01:20.511Z,94055.66
2024-02-15T17:03:46.868Z,94058.00
2024-02-15T17:06:13.269Z,94053.91
2024-02-15T17:08:42.008Z,94050.69
2024-02-15T17:11:10.119Z,94051.31
2024-02-15T17:13:41.992Z,94051.31
2024-02-15T17:16:08.387Z,94051.06
2024-02-15T17:18:35.127Z,94068.38
2024-02-15T17:21:01.584Z,94074.03
2024-02-15T17:23:28.016Z,94080.13
2024-02-15T17:25:54.896Z,94077.28
2024-02-15T17:28:21.627Z,94077.56
2024-02-15T17:30:48.059Z,94085.19
2024-02-15T17:33:14.991Z,94086.47
2024-02-15T17:35:41.850Z,94088.94
2024-02-15T17:38:08.822Z,94085.41
2024-02-15T17:40:35.168Z,94090.09
2024-02-15T17:43:01.528Z,94090.09
2024-02-15T17:45:27.945Z,94096.94
2024-02-15T17:47:54.415Z,94081.66
2024-02-15T17:50:23.443Z,94089.34
2024-02-15T17:52:49.857Z,94090.19
2024-02-15T17:55:16.833Z,94103.38
2024-02-15T17:57:46.255Z,94102.00
2024-02-15T18:00:16.898Z,94115.94
2024-02-15T18:02:51.208Z,94114.91
2024-02-15T18:05:18.756Z,94112.88
2024-02-15T18:07:46.347Z,94110.31
2024-02-15T18:10:12.834Z,94114.25
2024-02-15T18:12:40.265Z,94128.59
2024-02-15T18:15:12.623Z,94131.63
2024-02-15T18:17:39.059Z,94117.59
2024-02-15T18:20:05.828Z,94110.94
2024-02-15T18:22:32.164Z,94113.72
2024-02-15T18:24:58.518Z,94104.47
2024-02-15T18:27:24.990Z,94112.22
2024-02-15T18:29:51.350Z,94107.38
2024-02-15T18:32:19.326Z,94106.44
2024-02-15T18:34:48.269Z,94110.56
2024-02-15T18:37:14.961Z,94098.06
2024-02-15T18:39:41.684Z,94110.22
2024-02-15T18:42:08.324Z,94095.84
2024-02-15T18:44:35.802Z,94104.19
2024-02-15T18:47:02.324Z,94098.97
2024-02-15T18:49:33.202Z,94098.69
2024-02-15T18:52:03.161Z,94093.25
2024-02-15T18:54:29.476Z,94101.91
2024-02-15T18:56:58.958Z,94004.72
2024-02-15T18:59:25.984Z,94097.38
2024-02-15T19:01:52.587Z,94097.28
2024-02-15T19:04:19.679Z,94095.75
2024-02-15T19:06:46.288Z,94100.59
2024-02-15T19:09:12.968Z,94104.72
2024-02-15T19:11:39.833Z,94093.84
2024-02-15T19:14:06.223Z,94095.25
2024-02-15T19:16:33.568Z,94099.75
2024-02-15T19:19:00.886Z,94090.25
2024-02-15T19:21:27.539Z,94099.41
2024-02-15T19:23:54.224Z,94094.16
2024-02-15T19:26:20.597Z,94091.63
2024-02-15T19:28:48.167Z,94092.38
2024-02-15T19:31:14.995Z,94084.31
2024-02-15T19:33:48.645Z,94082.44
2024-02-15T19:36:25.743Z,94085.66
2024-02-15T19:38:55.738Z,94092.16
2024-02-15T19:41:22.418Z,93943.56
2024-02-15T19:43:53.107Z,94076.19
2024-02-15T19:46:21.761Z,94081.34
2024-02-15T19:48:50.587Z,94075.94
2024-02-15T19:51:17.681Z,94070.84
2024-02-15T19:53:44.068Z,94074.59
2024-02-15T19:56:12.517Z,94080.75
2024-02-15T19:58:39.098Z,94074.28
2024-02-15T20:01:05.494Z,94071.34
2024-02-15T20:03:33.123Z,94075.66
2024-02-15T20:06:00.176Z,94074.69
2024-02-15T20:08:27.742Z,94075.41
2024-02-15T20:10:57.282Z,94072.50
2024-02-15T20:13:23.840Z,94074.97
2024-02-15T20:15:54.314Z,94080.91
2024-02-15T20:18:21.470Z,94078.63
2024-02-15T20:20:49.926Z,94073.69
2024-02-15T20:23:16.877Z,94075.84
2024-02-15T20:25:43.370Z,94076.59
2024-02-15T20:28:09.793Z,94079.13
2024-02-15T20:30:38.128Z,94084.28
2024-02-15T20:33:06.463Z,94077.50
2024-02-15T20:35:32.919Z,94060.25
2024-02-15T20:37:59.222Z,94062.75
2024-02-15T20:40:25.559Z,94053.75
2024-02-15T20:42:51.892Z,94059.69
2024-02-15T20:45:20.670Z,94068.91
2024-02-15T20:47:48.496Z,94063.75
2024-02-15T20:50:15.051Z,94064.19
2024-02-15T20:52:41.441Z,94062.97
2024-02-15T20:55:08.341Z,94061.00
2024-02-15T20:57:34.725Z,94060.28
2024-02-15T21:00:01.907Z,94051.66
2024-02-15T21:02:31.867Z,94048.94
2024-02-15T21:04:58.377Z,94044.28
2024-02-15T21:07:24.778Z,94058.06
2024-02-15T21:09:51.265Z,94046.81
2024-02-15T21:12:17.840Z,94039.59
2024-02-15T21:14:44.189Z,94036.13
2024-02-15T21:17:10.631Z,93932.28
2024-02-15T21:19:39.093Z,94034.97
2024-02-15T21:22:06.346Z,94035.75
2024-02-15T21:24:32.799Z,94040.13
2024-02-15T21:27:01.517Z,94035.94
2024-02-15T21:29:27.985Z,94041.13
2024-02-15T21:31:54.398Z,94038.81
2024-02-15T21:34:21.733Z,94035.34
2024-02-15T21:36:48.530Z,94044.22
2024-02-15T21:39:14.946Z,94048.19
2024-02-15T21:41:41.284Z,94041.09
2024-02-15T21:44:10.531Z,94025.38
2024-02-15T21:46:38.557Z,94018.63
2024-02-15T21:49:05.013Z,94020.66
2024-02-15T21:51:31.503Z,94028.72
2024-02-15T21:53:57.857Z,94027.31
2024-02-15T21:56:25.301Z,94027.38
2024-02-15T21:58:51.829Z,94033.38
2024-02-15T22:01:18.251Z,94028.72
2024-02-15T22:03:44.590Z,94015.69
2024-02-15T22:06:12.187Z,94023.00
2024-02-15T22:08:38.680Z,94019.00
2024-02-15T22:11:05.000Z,94017.16
2024-02-15T22:13:31.327Z,94014.41
2024-02-15T22:15:57.713Z,94008.50
2024-02-15T22:18:24.729Z,94001.88
2024-02-15T22:20:52.772Z,94000.47
2024-02-15T22:23:20.541Z,93997.41
2024-02-15T22:25:46.941Z,93995.06
2024-02-15T22:28:17.300Z,93994.69
2024-02-15T22:30:43.627Z,93986.47
2024-02-15T22:33:10.181Z,93986.81
2024-02-15T22:35:36.941Z,94005.81
2024-02-15T22:38:03.299Z,93995.94
2024-02-15T22:40:30.193Z,94005.34
2024-02-15T22:42:56.525Z,93919.03
2024-02-15T22:45:22.861Z,94015.25
2024-02-15T22:47:49.346Z,94009.28
2024-02-15T22:50:15.778Z,94015.84
2024-02-15T22:52:42.094Z,94018.63
2024-02-15T22:55:08.657Z,94020.19
2024-02-15T22:57:35.097Z,94030.84
2024-02-15T23:00:01.760Z,94025.41
2024-02-15T23:02:28.969Z,94026.09
2024-02-15T23:04:55.795Z,94028.72
2024-02-15T23:07:24.432Z,94030.66
2024-02-15T23:09:51.006Z,94032.34
2024-02-15T23:12:17.331Z,94033.78
2024-02-15T23:14:43.769Z,94040.53
2024-02-15T23:17:10.182Z,94035.13
2024-02-15T23:19:38.551Z,94028.25
2024-02-15T23:22:05.053Z,94035.06
2024-02-15T23:24:31.478Z,94033.63
2024-02-15T23:26:57.904Z,94040.09
2024-02-15T23:29:24.287Z,94033.28
2024-02-15T23:31:50.713Z,94046.88
2024-02-15T23:34:17.178Z,94040.13
2024-02-15T23:37:02.133Z,94041.22
2024-02-15T23:40:06.838Z,94052.53
2024-02-15T23:42:33.210Z,94056.06
2024-02-15T23:44:59.611Z,94066.25
2024-02-15T23:47:25.966Z,94061.53
2024-02-15T23:49:52.389Z,94061.88
2024-02-15T23:52:19.361Z,94072.72
2024-02-15T23:54:45.762Z,94077.25
2024-02-15T23:57:12.117Z,94077.16
2024-02-15T23:59:38.450Z,94078.09
